Terminal Aerodrome Forecast
Issued by NWS

Home | Current Version | Previous Version | Text Only | Print | Product List | Glossary Off
Versions: 1 2 3 4 5 6 7 8 9 10 11 12 13 14 15 16 17 18 19 20 21

023
FTUS43 KABR 022307 AAB
TAFPIR
TAF AMD
KPIR 022307Z 0223/0318 01013KT P6SM FEW022 SCT027 OVC090
      TEMPO 0223/0224 2SM -SN OVC015
     FM030200 36014KT P6SM OVC060
     FM030600 32010KT P6SM BKN080=

USA.gov is the U.S. government's official web portal to all federal, state and local government web resources and services.